Map

Track Data

SID SEASON NUMBER BASIN SUBBASIN NAME ISO_TIME NATURE LAT LON WMO_WIND WMO_PRES WMO_AGENCY TRACK_TYPE DIST2LAND LANDFALL IFLAG USA_AGENCY USA_ATCF_ID USA_LAT USA_LON USA_RECORD USA_STATUS USA_WIND USA_PRES USA_SSHS USA_R34_NE USA_R34_SE USA_R34_SW USA_R34_NW USA_R50_NE USA_R50_SE USA_R50_SW USA_R50_NW USA_R64_NE USA_R64_SE USA_R64_SW USA_R64_NW USA_POCI USA_ROCI USA_RMW USA_EYE TOKYO_LAT TOKYO_LON TOKYO_GRADE TOKYO_WIND TOKYO_PRES TOKYO_R50_DIR TOKYO_R50_LONG TOKYO_R50_SHORT TOKYO_R30_DIR TOKYO_R30_LONG TOKYO_R30_SHORT TOKYO_LAND CMA_LAT CMA_LON CMA_CAT CMA_WIND CMA_PRES HKO_LAT HKO_LON HKO_CAT HKO_WIND HKO_PRES NEWDELHI_LAT NEWDELHI_LON NEWDELHI_GRADE NEWDELHI_WIND NEWDELHI_PRES NEWDELHI_CI NEWDELHI_DP NEWDELHI_POCI REUNION_LAT REUNION_LON REUNION_TYPE REUNION_WIND REUNION_PRES REUNION_TNUM REUNION_CI REUNION_RMW REUNION_R34_NE REUNION_R34_SE REUNION_R34_SW REUNION_R34_NW REUNION_R50_NE REUNION_R50_SE REUNION_R50_SW REUNION_R50_NW REUNION_R64_NE REUNION_R64_SE REUNION_R64_SW REUNION_R64_NW BOM_LAT BOM_LON BOM_TYPE BOM_WIND BOM_PRES BOM_TNUM BOM_CI BOM_RMW BOM_R34_NE BOM_R34_SE BOM_R34_SW BOM_R34_NW BOM_R50_NE BOM_R50_SE BOM_R50_SW BOM_R50_NW BOM_R64_NE BOM_R64_SE BOM_R64_SW BOM_R64_NW BOM_ROCI BOM_POCI BOM_EYE BOM_POS_METHOD BOM_PRES_METHOD NADI_LAT NADI_LON NADI_CAT NADI_WIND NADI_PRES WELLINGTON_LAT WELLINGTON_LON WELLINGTON_WIND WELLINGTON_PRES DS824_LAT DS824_LON DS824_STAGE DS824_WIND DS824_PRES TD9636_LAT TD9636_LON TD9636_STAGE TD9636_WIND TD9636_PRES TD9635_LAT TD9635_LON TD9635_WIND TD9635_PRES TD9635_ROCI NEUMANN_LAT NEUMANN_LON NEUMANN_CLASS NEUMANN_WIND NEUMANN_PRES MLC_LAT MLC_LON MLC_CLASS MLC_WIND MLC_PRES USA_GUST BOM_GUST BOM_GUST_PER REUNION_GUST REUNION_GUST_PER USA_SEAHGT USA_SEARAD_NE USA_SEARAD_SE USA_SEARAD_SW USA_SEARAD_NW STORM_SPEED STORM_DIR
1923006N06092 1923 1 NI BB NOT_NAMED 1923-01-06 00:00:00 TS 5.50000 92.3000 main 321 321 _________O____ -1 5.50000 92.3000 TC 30 3 284
1923006N06092 1923 1 NI BB NOT_NAMED 1923-01-06 03:00:00 TS 5.54001 92.1384 main 343 343 _________PO___ -1 5.56002 92.0575 TC 30 5.50000 92.3000 1 4 280
1923006N06092 1923 1 NI BB NOT_NAMED 1923-01-06 06:00:00 TS 5.57252 91.8963 main 365 365 _________OP___ -1 5.60000 91.8000 TC 30 5.53130 92.0406 1 5 275
1923006N06092 1923 1 NI BB NOT_NAMED 1923-01-06 09:00:00 TS 5.58715 91.6264 main 398 398 _________PP___ -1 5.60748 91.5150 TC 30 5.56004 91.7750 1 5 272
1923006N06092 1923 1 NI BB NOT_NAMED 1923-01-06 12:00:00 TS 5.59188 91.3484 main 432 432 _________OP___ -1 5.60000 91.2000 TC 30 5.58376 91.4969 1 6 271
1923006N06092 1923 1 NI BB NOT_NAMED 1923-01-06 15:00:00 TS 5.60000 91.0250 main 465 465 _________PO___ -1 5.60000 90.8500 TC 30 5.60000 91.2000 1 7 271
1923006N06092 1923 1 NI BB NOT_NAMED 1923-01-06 18:00:00 TS 5.60360 90.6906 main 498 498 _________OP___ -1 5.60000 90.5000 TC 30 5.60720 90.8812 1 7 270
1923006N06092 1923 1 NI BB NOT_NAMED 1923-01-06 21:00:00 TS 5.60375 90.3712 main 531 531 _________PP___ -1 5.59997 90.1925 TC 30 5.60752 90.5500 1 6 270
1923006N06092 1923 1 NI BB NOT_NAMED 1923-01-07 00:00:00 TS 5.60204 90.0594 main 564 564 _________OP___ -1 5.60000 89.9000 TC 30 5.60408 90.2187 1 6 270
1923006N06092 1923 1 NI BB NOT_NAMED 1923-01-07 03:00:00 TS 5.60000 89.7463 main 609 609 _________PO___ -1 5.60000 89.5925 TC 30 5.60000 89.9000 1 6 270
1923006N06092 1923 1 NI BB NOT_NAMED 1923-01-07 06:00:00 TS 5.59792 89.4573 main 631 631 _________OP___ -1 5.60000 89.3000 TC 30 5.59585 89.6147 1 5 270
1923006N06092 1923 1 NI BB NOT_NAMED 1923-01-07 09:00:00 TS 5.59618 89.1962 main 664 664 _________PP___ -1 5.59997 89.0500 TC 30 5.59238 89.3425 1 5 270
1923006N06092 1923 1 NI BB NOT_NAMED 1923-01-07 12:00:00 TS 5.59636 88.9370 main 697 697 _________OP___ -1 5.60000 88.8000 TC 30 5.59273 89.0741 1 5 270
1923006N06092 1923 1 NI BB NOT_NAMED 1923-01-07 15:00:00 TS 5.59625 88.6537 main 720 720 _________PO___ -1 5.59250 88.5075 TC 30 5.60000 88.8000 1 6 271
1923006N06092 1923 1 NI BB NOT_NAMED 1923-01-07 18:00:00 TS 5.61092 88.3536 main 736 703 _________OP___ -1 5.60000 88.2000 TC 30 5.62185 88.5072 1 6 275
1923006N06092 1923 1 NI BB NOT_NAMED 1923-01-07 21:00:00 TS 5.64997 88.0538 main 703 668 _________PP___ -1 5.64998 87.9000 TC 30 5.64996 88.2075 1 6 277
1923006N06092 1923 1 NI BB NOT_NAMED 1923-01-08 00:00:00 TS 5.68905 87.7520 main 668 636 _________OP___ -1 5.70000 87.6000 TC 30 5.67809 87.9041 1 6 275
1923006N06092 1923 1 NI BB NOT_NAMED 1923-01-08 03:00:00 TS 5.70374 87.4500 main 636 604 _________PO___ -1 5.70748 87.3000 TC 30 5.70000 87.6000 1 6 271
1923006N06092 1923 1 NI BB NOT_NAMED 1923-01-08 06:00:00 TS 5.70155 87.1479 main 593 571 _________OP___ -1 5.70000 87.0000 TC 30 5.70309 87.2959 1 6 269
1923006N06092 1923 1 NI BB NOT_NAMED 1923-01-08 09:00:00 TS 5.69623 86.8425 main 561 539 _________PP___ -1 5.69250 86.6925 TC 30 5.69996 86.9925 1 6 270
1923006N06092 1923 1 NI BB NOT_NAMED 1923-01-08 12:00:00 TS 5.69842 86.5464 main 529 508 _________OP___ -1 5.70000 86.4000 TC 30 5.69685 86.6928 1 6 273
1923006N06092 1923 1 NI BB NOT_NAMED 1923-01-08 15:00:00 TS 5.72498 86.2750 main 508 473 _________PO___ -1 5.74997 86.1500 TC 30 5.70000 86.4000 1 5 277
1923006N06092 1923 1 NI BB NOT_NAMED 1923-01-08 18:00:00 TS 5.76089 86.0150 main 473 451 _________OP___ -1 5.80000 85.9000 TC 30 5.72177 86.1300 1 5 276
1923006N06092 1923 1 NI BB NOT_NAMED 1923-01-08 21:00:00 TS 5.77867 85.7400 main 441 420 _________PP___ -1 5.80748 85.6150 TC 30 5.74985 85.8650 1 6 273
1923006N06092 1923 1 NI BB NOT_NAMED 1923-01-09 00:00:00 TS 5.78901 85.4463 main 409 378 _________OP___ -1 5.80000 85.3000 TC 30 5.77801 85.5925 1 6 272
1923006N06092 1923 1 NI BB NOT_NAMED 1923-01-09 03:00:00 TS 5.80000 85.1288 main 378 347 _________PO___ -1 5.79999 84.9575 TC 30 5.80000 85.3000 1 7 271
1923006N06092 1923 1 NI BB NOT_NAMED 1923-01-09 06:00:00 TS 5.80360 84.7837 main 347 307 _________OP___ -1 5.80000 84.6000 TC 30 5.80720 84.9675 1 7 270
1923006N06092 1923 1 NI BB NOT_NAMED 1923-01-09 09:00:00 TS 5.80375 84.4287 main 307 276 _________PP___ -1 5.79999 84.2425 TC 30 5.80752 84.6150 1 7 270
1923006N06092 1923 1 NI BB NOT_NAMED 1923-01-09 12:00:00 TS 5.80203 84.0775 main 276 245 _________OP___ -1 5.80000 83.9000 TC 30 5.80407 84.2550 1 7 270
1923006N06092 1923 1 NI BB NOT_NAMED 1923-01-09 15:00:00 TS 5.79998 83.7500 main 245 214 _________PO___ -1 5.79996 83.6000 TC 30 5.80000 83.9000 1 6 269
1923006N06092 1923 1 NI BB NOT_NAMED 1923-01-09 18:00:00 TS 5.79588 83.4380 main 203 173 _________OP___ -1 5.80000 83.3000 TC 30 5.79176 83.5759 1 6 269
1923006N06092 1923 1 NI BB NOT_NAMED 1923-01-09 21:00:00 TS 5.78866 83.1112 main 173 144 _________PP___ -1 5.79248 82.9650 TC 30 5.78485 83.2574 1 7 270
1923006N06092 1923 1 NI BB NOT_NAMED 1923-01-10 00:00:00 TS 5.79276 82.7676 main 144 110 _________OP___ -1 5.80000 82.6000 TC 30 5.78551 82.9353 1 7 273
1923006N06092 1923 1 NI BB NOT_NAMED 1923-01-10 03:00:00 TS 5.82125 82.4000 main 110 74 _________PO___ -1 5.84250 82.2000 TC 30 5.80000 82.6000 1 8 275
1923006N06092 1923 1 NI BB NOT_NAMED 1923-01-10 06:00:00 TS 5.85563 82.0156 main 74 55 _________OP___ -1 5.90000 81.8000 TC 30 5.81126 82.2312 1 8 275
1923006N06092 1923 1 NI BB NOT_NAMED 1923-01-10 09:00:00 TS 5.88749 81.6462 main 47 33 _________PP___ -1 5.93496 81.4425 TC 30 5.84002 81.8499 1 7 277
1923006N06092 1923 1 NI BB NOT_NAMED 1923-01-10 12:00:00 TS 5.94938 81.2843 main 33 0 _________OP___ -1 6.00000 81.1000 TC 30 5.89876 81.4686 1 7 283
1923006N06092 1923 1 NI BB NOT_NAMED 1923-01-10 15:00:00 TS 6.06000 80.9212 main 0 0 _________PO___ -1 6.11999 80.7425 TC 30 6.00000 81.1000 1 8 291
1923006N06092 1923 1 NI BB NOT_NAMED 1923-01-10 18:00:00 TS 6.22438 80.5662 main 0 0 _________OP___ -1 6.30000 80.4000 TC 30 6.14875 80.7323 1 8 299
1923006N06092 1923 1 NI BB NOT_NAMED 1923-01-10 21:00:00 TS 6.43751 80.2301 main 0 0 _________PP___ -1 6.53499 80.0775 TC 30 6.34003 80.3827 1 8 306
1923006N06092 1923 1 NI BB NOT_NAMED 1923-01-11 00:00:00 TS 6.68064 79.9333 main 11 11 _________OP___ -1 6.80000 79.8000 TC 30 6.56128 80.0667 1 7 312
1923006N06092 1923 1 NI BB NOT_NAMED 1923-01-11 03:00:00 TS 6.92499 79.6850 main 22 22 _________PO___ -1 7.04998 79.5700 TC 30 6.80000 79.8000 1 7 318
1923006N06092 1923 1 NI BB NOT_NAMED 1923-01-11 06:00:00 TS 7.16573 79.4897 main 44 44 _________OP___ -1 7.30000 79.4000 TC 30 7.03146 79.5793 1 6 325
1923006N06092 1923 1 NI BB NOT_NAMED 1923-01-11 09:00:00 TS 7.41369 79.3437 main 59 55 _________PP___ -1 7.54999 79.2775 TC 30 7.27739 79.4100 1 6 334
1923006N06092 1923 1 NI BB NOT_NAMED 1923-01-11 12:00:00 TS 7.66731 79.2428 main 64 56 _________OP___ -1 7.80000 79.2000 TC 30 7.53462 79.2856 1 5 341
1923006N06092 1923 1 NI BB NOT_NAMED 1923-01-11 15:00:00 TS 7.92125 79.1675 main 56 55 _________PO___ -1 8.04250 79.1350 TC 30 7.80000 79.2000 1 5 347
1923006N06092 1923 1 NI BB NOT_NAMED 1923-01-11 18:00:00 TS 8.16895 79.1266 main 66 66 _________OP___ -1 8.30000 79.1000 TC 30 8.07066 79.1465 1 5 354
1923006N06092 1923 1 NI BB NOT_NAMED 1923-01-11 21:00:00 TS 8.44302 79.1075 main 69 68 _________PP___ -1 8.59000 79.0925 TC 30 8.34504 79.1175 1 6 0
1923006N06092 1923 1 NI BB NOT_NAMED 1923-01-12 00:00:00 TS 8.71460 79.1031 main 68 46 _________OP___ -1 8.90000 79.1000 TC 30 8.62190 79.1047 1 5 0
1923006N06092 1923 1 NI BB NOT_NAMED 1923-01-12 03:00:00 NR 8.90000 79.1000 main 46 __________O___ -1 TC 8.90000 79.1000 1 4 358

About IBTrACS Database

This database is a web-friendly format of International Best Track Archive for Climate Stewardship (IBTrACS), a global best track data archive curated by NOAA dating back to 1842.

Updated: 2021-10-21